Time;durP1;ratioP1;P1;durP2;ratioP2;P2;SDS_P1;SDS_P2;PMS_P1;PMS_P2;Temp;Humidity;BMP_temperature;BMP_pressure;BME280_temperature;BME280_humidity;BME280_pressure;Samples;Min_cycle;Max_cycle;Signal;HPM_P1;HPM_P2
2022/10/09 00:01:18;;;;;;;0.93;0.30;;;15.60;83.10;;;;;;5051585;28;20029;-65
2022/10/09 00:03:48;;;;;;;0.10;0.10;;;15.80;82.40;;;;;;5051922;28;20025;-65
2022/10/09 00:06:22;;;;;;;0.15;0.13;;;16.10;88.10;;;;;;5052135;28;20098;-65
2022/10/09 00:08:49;;;;;;;0.20;0.17;;;16.50;82.20;;;;;;5051698;28;20375;-65
2022/10/09 00:11:24;;;;;;;0.20;0.13;;;16.70;77.10;;;;;;5049684;28;20136;-65
2022/10/09 00:13:52;;;;;;;0.32;0.20;;;16.70;75.70;;;;;;5042686;28;20021;-64
2022/10/09 00:16:22;;;;;;;0.10;0.10;;;16.70;80.00;;;;;;5044343;28;20064;-65
2022/10/09 00:18:49;;;;;;;0.38;0.30;;;16.80;75.30;;;;;;5047465;28;20120;-65
2022/10/09 00:21:33;;;;;;;0.20;0.20;;;16.90;80.60;;;;;;5046692;28;20041;-65
2022/10/09 00:24:05;;;;;;;0.35;0.30;;;17.10;78.90;;;;;;5048807;28;20025;-74
2022/10/09 00:26:33;;;;;;;0.45;0.30;;;17.30;76.60;;;;;;5044995;28;20051;-70
2022/10/09 00:29:00;;;;;;;0.22;0.20;;;17.30;75.20;;;;;;5047257;28;20056;-64
2022/10/09 00:31:27;;;;;;;0.20;0.20;;;17.40;73.50;;;;;;5048652;28;20037;-67
2022/10/09 00:33:55;;;;;;;0.10;0.10;;;17.60;72.90;;;;;;5038672;28;20513;-67
2022/10/09 00:36:25;;;;;;;0.20;0.20;;;17.40;75.70;;;;;;5048873;28;20063;-67
2022/10/09 00:38:54;;;;;;;0.55;0.20;;;17.50;72.20;;;;;;5048991;28;20100;-65
2022/10/09 00:41:24;;;;;;;0.55;0.20;;;17.40;72.80;;;;;;5039497;28;20075;-67
2022/10/09 00:44:04;;;;;;;0.75;0.20;;;17.40;74.20;;;;;;5048669;28;20033;-65
2022/10/09 00:46:47;;;;;;;0.52;0.20;;;17.20;72.80;;;;;;5048488;28;20473;-67
2022/10/09 00:49:35;;;;;;;0.28;0.20;;;17.00;74.40;;;;;;5038889;28;20038;-67
2022/10/09 00:52:15;;;;;;;0.25;0.20;;;16.90;69.70;;;;;;5040320;28;20028;-66
2022/10/09 00:54:53;;;;;;;0.10;0.10;;;16.70;72.20;;;;;;5046525;28;20107;-64
2022/10/09 00:57:26;;;;;;;0.20;0.20;;;16.60;73.60;;;;;;5046373;28;20020;-67
2022/10/09 00:59:54;;;;;;;0.25;0.20;;;16.60;72.20;;;;;;5053741;28;20524;-65
2022/10/09 01:02:21;;;;;;;0.40;0.20;;;16.50;75.20;;;;;;5045900;28;20029;-66
2022/10/09 01:04:51;;;;;;;2.42;0.30;;;16.60;74.80;;;;;;5044751;28;20032;-67
2022/10/09 01:08:09;;;;;;;0.20;0.13;;;16.60;73.30;;;;;;5048748;28;20021;-67
2022/10/09 01:11:05;;;;;;;0.63;0.38;;;16.60;72.90;;;;;;5021225;28;20402;-68
2022/10/09 01:14:18;;;;;;;0.60;0.20;;;16.60;73.50;;;;;;5039597;28;20037;-66
2022/10/09 01:16:56;;;;;;;0.98;0.30;;;16.50;74.10;;;;;;5038637;28;20045;-66
2022/10/09 01:19:56;;;;;;;0.20;0.20;;;16.40;74.80;;;;;;5048582;28;20033;-65
2022/10/09 01:23:04;;;;;;;0.20;0.20;;;16.70;76.30;;;;;;5048189;28;20028;-65
2022/10/09 01:25:50;;;;;;;0.30;0.22;;;17.10;77.10;;;;;;5034925;28;20025;-66
2022/10/09 01:28:20;;;;;;;0.38;0.20;;;17.00;77.00;;;;;;5048953;28;20033;-66
2022/10/09 01:30:48;;;;;;;0.60;0.60;;;17.10;77.40;;;;;;5046337;28;20028;-64
2022/10/09 01:33:17;;;;;;;0.25;0.22;;;17.30;74.50;;;;;;5048256;28;20061;-64
2022/10/09 01:35:46;;;;;;;0.30;0.28;;;17.10;73.00;;;;;;5044867;28;20056;-65
2022/10/09 01:38:14;;;;;;;0.30;0.30;;;16.90;72.90;;;;;;5047501;28;20632;-65
2022/10/09 01:40:42;;;;;;;0.68;0.20;;;17.00;73.80;;;;;;5048674;28;20502;-65
2022/10/09 01:43:09;;;;;;;0.60;0.20;;;17.00;77.70;;;;;;5046138;28;20025;-66
2022/10/09 01:45:39;;;;;;;0.68;0.40;;;17.00;74.90;;;;;;5044464;28;20025;-65
2022/10/09 01:48:11;;;;;;;0.35;0.22;;;16.90;75.40;;;;;;5045402;28;20029;-65
2022/10/09 01:50:43;;;;;;;0.52;0.47;;;16.90;75.70;;;;;;5041382;28;20128;-66
2022/10/09 01:53:15;;;;;;;0.22;0.20;;;16.90;75.70;;;;;;5044876;28;20037;-66
2022/10/09 01:55:57;;;;;;;0.20;0.20;;;17.10;74.30;;;;;;5050191;28;20021;-66
2022/10/09 01:58:46;;;;;;;1.05;0.30;;;17.30;75.50;;;;;;5045343;28;20018;-65
2022/10/09 02:01:21;;;;;;;0.25;0.20;;;17.40;73.20;;;;;;5061976;28;20581;-65
2022/10/09 02:03:55;;;;;;;;;;;17.50;73.30;;;;;;5029796;28;20025;-66
2022/10/09 02:06:23;;;;;;;0.20;0.20;;;17.60;70.50;;;;;;5029997;28;19905;-67
2022/10/09 02:08:52;;;;;;;0.45;0.15;;;18.20;71.60;;;;;;5029749;28;20021;-66
2022/10/09 02:11:21;;;;;;;0.28;0.20;;;18.70;70.50;;;;;;5044556;28;20025;-65
2022/10/09 02:13:51;;;;;;;0.32;0.30;;;18.80;66.60;;;;;;5049585;28;20469;-64
2022/10/09 02:16:28;;;;;;;0.20;0.20;;;18.90;66.40;;;;;;5049336;28;20048;-66
2022/10/09 02:19:17;;;;;;;0.40;0.30;;;18.80;66.90;;;;;;5049756;28;20025;-66
2022/10/09 02:22:06;;;;;;;0.20;0.20;;;18.60;66.50;;;;;;5049566;28;20460;-67
2022/10/09 02:24:36;;;;;;;0.20;0.20;;;19.10;69.30;;;;;;5048528;28;20120;-66
2022/10/09 02:27:04;;;;;;;0.40;0.30;;;19.40;72.70;;;;;;5050648;28;20051;-67
2022/10/09 02:29:32;;;;;;;0.75;0.43;;;19.50;66.50;;;;;;5049097;28;20013;-65
2022/10/09 02:32:02;;;;;;;0.45;0.30;;;19.60;64.80;;;;;;5049354;28;20486;-65
2022/10/09 02:34:30;;;;;;;0.30;0.22;;;19.40;65.00;;;;;;5049535;28;20029;-67
2022/10/09 02:37:07;;;;;;;0.63;0.30;;;19.20;65.30;;;;;;5049436;28;20083;-67
2022/10/09 02:39:40;;;;;;;0.35;0.20;;;18.90;64.50;;;;;;5049596;28;20066;-67
2022/10/09 02:42:08;;;;;;;0.70;0.20;;;18.60;67.20;;;;;;5049778;28;20383;-66
2022/10/09 02:45:01;;;;;;;0.25;0.25;;;18.60;67.60;;;;;;5048350;28;20075;-66
2022/10/09 02:47:28;;;;;;;0.55;0.38;;;18.90;67.50;;;;;;5038235;28;20029;-66
2022/10/09 02:49:55;;;;;;;0.38;0.20;;;18.90;64.30;;;;;;5047641;28;20076;-67
2022/10/09 02:52:23;;;;;;;0.28;0.28;;;18.90;69.80;;;;;;5049305;28;20029;-66
2022/10/09 02:54:50;;;;;;;0.32;0.30;;;19.10;70.10;;;;;;5048199;28;20025;-65
2022/10/09 02:57:21;;;;;;;0.25;0.22;;;19.40;70.30;;;;;;5047365;28;20128;-65
2022/10/09 02:59:48;;;;;;;0.30;0.20;;;19.60;67.20;;;;;;5047466;28;20048;-66
2022/10/09 03:02:15;;;;;;;0.98;0.40;;;19.60;74.20;;;;;;5049206;28;20059;-67
2022/10/09 03:04:48;;;;;;;1.23;0.25;;;19.60;67.70;;;;;;5047856;28;20020;-66
2022/10/09 03:07:18;;;;;;;1.17;0.25;;;19.20;62.40;;;;;;5047349;28;20040;-66
2022/10/09 03:09:46;;;;;;;0.38;0.20;;;19.20;73.00;;;;;;5047779;28;20017;-67
2022/10/09 03:12:19;;;;;;;0.45;0.30;;;19.40;72.00;;;;;;5048866;28;20116;-66
2022/10/09 03:14:50;;;;;;;0.70;0.67;;;19.40;66.40;;;;;;5049917;28;20028;-66
2022/10/09 03:17:17;;;;;;;0.57;0.40;;;19.40;66.50;;;;;;5053305;28;20269;-66
2022/10/09 03:19:45;;;;;;;0.40;0.30;;;19.50;67.50;;;;;;5044381;28;20025;-65
2022/10/09 03:22:12;;;;;;;0.63;0.20;;;19.60;63.90;;;;;;5041928;28;20032;-65
2022/10/09 03:24:39;;;;;;;0.77;0.30;;;19.50;67.40;;;;;;5043532;28;20025;-66
2022/10/09 03:27:07;;;;;;;1.60;0.35;;;19.50;63.90;;;;;;5037884;28;20441;-65
2022/10/09 03:29:34;;;;;;;0.20;0.20;;;19.50;65.30;;;;;;5048607;28;20048;-66
2022/10/09 03:32:01;;;;;;;0.22;0.22;;;19.40;64.40;;;;;;5044682;28;20021;-65
2022/10/09 03:34:32;;;;;;;0.50;0.20;;;19.20;65.60;;;;;;5040481;28;20572;-65
2022/10/09 03:36:59;;;;;;;0.28;0.28;;;19.10;63.70;;;;;;5043593;28;20029;-66
2022/10/09 03:39:26;;;;;;;0.20;0.20;;;19.10;66.60;;;;;;5065821;28;20508;-66
2022/10/09 03:41:54;;;;;;;0.52;0.25;;;19.10;65.80;;;;;;5038501;28;20041;-64
2022/10/09 03:44:21;;;;;;;0.55;0.25;;;19.00;66.90;;;;;;5036030;28;20079;-65
2022/10/09 03:46:51;;;;;;;0.63;0.28;;;19.00;65.60;;;;;;5035298;28;20052;-64
2022/10/09 03:49:28;;;;;;;0.50;0.22;;;18.90;66.40;;;;;;5037535;28;20068;-65
2022/10/09 03:51:56;;;;;;;0.52;0.28;;;18.90;65.70;;;;;;5048684;28;20039;-66
2022/10/09 03:54:23;;;;;;;0.55;0.30;;;18.80;68.70;;;;;;5051440;28;20033;-65
2022/10/09 03:56:50;;;;;;;0.22;0.20;;;18.90;66.40;;;;;;5049058;28;20123;-66
2022/10/09 03:59:18;;;;;;;1.00;0.28;;;19.00;69.90;;;;;;5048654;28;20029;-65
2022/10/09 04:01:45;;;;;;;0.40;0.15;;;19.20;67.50;;;;;;5046040;28;20037;-65
2022/10/09 04:04:16;;;;;;;0.20;0.20;;;19.10;68.60;;;;;;5047583;28;20116;-65
2022/10/09 04:06:43;;;;;;;0.43;0.20;;;18.90;68.10;;;;;;5049888;28;20075;-65
2022/10/09 04:09:10;;;;;;;0.60;0.32;;;19.00;66.70;;;;;;5048277;28;20501;-65
2022/10/09 04:11:38;;;;;;;0.13;0.13;;;19.00;67.80;;;;;;5048418;28;20074;-68
2022/10/09 04:14:05;;;;;;;0.20;0.20;;;18.90;69.60;;;;;;5049721;28;20025;-64
2022/10/09 04:16:32;;;;;;;0.52;0.30;;;19.10;70.10;;;;;;5048927;28;20029;-65
2022/10/09 04:19:00;;;;;;;0.60;0.30;;;19.20;70.40;;;;;;5050951;28;20027;-65
2022/10/09 04:21:27;;;;;;;0.20;0.20;;;19.30;66.10;;;;;;5056421;28;20032;-64
2022/10/09 04:23:58;;;;;;;0.20;0.20;;;19.20;64.90;;;;;;5047963;28;20039;-63
2022/10/09 04:26:31;;;;;;;0.52;0.30;;;19.20;68.10;;;;;;5052128;28;20071;-64
2022/10/09 04:28:59;;;;;;;0.40;0.37;;;19.50;64.30;;;;;;5052231;28;20104;-63
2022/10/09 04:31:26;;;;;;;1.08;0.30;;;19.60;67.50;;;;;;5051255;28;20045;-63
2022/10/09 04:33:59;;;;;;;0.63;0.30;;;19.30;65.10;;;;;;5051428;28;20551;-64
2022/10/09 04:36:27;;;;;;;1.00;0.20;;;19.40;66.40;;;;;;5051324;28;20033;-63
2022/10/09 04:38:54;;;;;;;0.73;0.32;;;19.20;63.60;;;;;;5051927;28;20033;-62
2022/10/09 04:41:25;;;;;;;1.45;0.28;;;19.00;65.70;;;;;;5055360;28;20644;-63
2022/10/09 04:43:56;;;;;;;1.02;0.43;;;19.00;66.40;;;;;;5052342;28;20158;-63
2022/10/09 04:46:24;;;;;;;0.43;0.20;;;19.00;65.20;;;;;;5063137;28;20032;-64
2022/10/09 04:48:51;;;;;;;0.50;0.30;;;18.80;69.20;;;;;;5050734;28;20490;-63
2022/10/09 04:51:19;;;;;;;0.65;0.32;;;18.70;70.90;;;;;;5061080;28;20032;-62
2022/10/09 04:53:47;;;;;;;0.32;0.25;;;18.60;70.30;;;;;;5059075;28;20027;-63
2022/10/09 04:56:18;;;;;;;0.20;0.20;;;18.50;66.90;;;;;;5051011;28;20167;-64
2022/10/09 04:58:47;;;;;;;0.93;0.30;;;18.50;68.60;;;;;;5064657;28;20481;-63
2022/10/09 05:01:18;;;;;;;0.40;0.30;;;18.40;69.20;;;;;;5053286;28;20024;-63
2022/10/09 05:03:46;;;;;;;0.10;0.10;;;18.20;68.10;;;;;;5058701;28;20013;-63
2022/10/09 05:06:14;;;;;;;1.17;0.28;;;18.00;70.70;;;;;;5049729;28;20027;-63
2022/10/09 05:08:42;;;;;;;0.30;0.20;;;17.80;69.80;;;;;;5064949;28;20021;-62
2022/10/09 05:11:12;;;;;;;0.40;0.20;;;17.70;69.40;;;;;;5051016;28;20389;-64
2022/10/09 05:13:44;;;;;;;1.10;0.30;;;17.80;69.20;;;;;;5059878;28;20163;-64
2022/10/09 05:16:16;;;;;;;0.55;0.30;;;18.00;71.50;;;;;;5060881;28;20029;-64
2022/10/09 05:18:47;;;;;;;0.40;0.20;;;18.30;72.20;;;;;;5051330;28;20520;-63
2022/10/09 05:21:15;;;;;;;0.20;0.20;;;18.60;70.20;;;;;;5059457;28;20041;-63
2022/10/09 05:23:43;;;;;;;0.20;0.20;;;18.80;66.70;;;;;;5059210;28;20029;-63
2022/10/09 05:26:19;;;;;;;0.25;0.20;;;19.10;70.00;;;;;;5041287;28;20040;-62
2022/10/09 05:28:46;;;;;;;1.02;0.30;;;19.40;70.70;;;;;;5044062;28;20028;-63
2022/10/09 05:31:27;;;;;;;1.38;0.25;;;19.70;66.20;;;;;;5036777;28;20148;-63
2022/10/09 05:33:55;;;;;;;1.75;0.20;;;19.70;65.70;;;;;;5051752;28;20077;-63
2022/10/09 05:36:32;;;;;;;2.40;0.20;;;19.80;65.00;;;;;;5052186;28;20359;-65
2022/10/09 05:39:00;;;;;;;0.20;0.20;;;19.60;63.50;;;;;;5044683;28;20440;-64
2022/10/09 05:41:30;;;;;;;0.40;0.30;;;19.60;62.50;;;;;;5045236;28;20029;-63
2022/10/09 05:44:01;;;;;;;0.40;0.30;;;19.60;64.20;;;;;;5050358;28;20096;-64
2022/10/09 05:46:29;;;;;;;0.70;0.30;;;19.50;64.60;;;;;;5047785;28;20036;-64
2022/10/09 05:49:11;;;;;;;0.43;0.20;;;19.30;67.50;;;;;;5051068;28;20080;-66
2022/10/09 05:51:41;;;;;;;1.23;0.25;;;19.40;67.60;;;;;;5045701;28;20029;-65
2022/10/09 05:54:13;;;;;;;0.88;0.20;;;19.30;67.50;;;;;;5059625;28;20393;-65
2022/10/09 05:56:42;;;;;;;1.15;0.22;;;19.40;65.00;;;;;;5051163;28;20028;-65
2022/10/09 05:59:17;;;;;;;0.32;0.22;;;19.40;67.60;;;;;;5058223;28;20028;-64
2022/10/09 06:01:51;;;;;;;0.98;0.35;;;19.40;64.40;;;;;;5048898;28;20128;-63
2022/10/09 06:04:24;;;;;;;0.52;0.52;;;19.50;64.10;;;;;;5062214;28;20393;-64
2022/10/09 06:06:51;;;;;;;0.30;0.30;;;19.60;62.40;;;;;;5047977;28;20515;-64
2022/10/09 06:09:21;;;;;;;0.63;0.20;;;19.40;63.30;;;;;;5055326;28;20016;-64
2022/10/09 06:11:49;;;;;;;0.20;0.20;;;19.40;63.80;;;;;;5049781;28;20049;-64
2022/10/09 06:14:17;;;;;;;0.60;0.30;;;19.10;63.80;;;;;;5046464;28;20478;-64
2022/10/09 06:16:45;;;;;;;0.20;0.20;;;19.00;65.00;;;;;;5052534;28;20087;-64
2022/10/09 06:19:15;;;;;;;0.20;0.20;;;19.00;65.60;;;;;;5056487;28;20024;-64
2022/10/09 06:21:44;;;;;;;3.13;0.70;;;18.80;67.60;;;;;;5041209;28;20040;-64
2022/10/09 06:24:24;;;;;;;2.65;0.60;;;18.50;70.40;;;;;;5059603;28;20017;-64
2022/10/09 06:26:51;;;;;;;2.58;0.75;;;18.40;71.10;;;;;;5051456;28;20024;-63
2022/10/09 06:29:19;;;;;;;4.63;0.85;;;18.00;72.80;;;;;;5046517;28;20009;-64
2022/10/09 06:31:46;;;;;;;7.63;1.10;;;17.50;75.60;;;;;;5059159;28;20025;-63
2022/10/09 06:34:13;;;;;;;2.92;0.70;;;17.00;77.00;;;;;;5066383;28;20052;-63
2022/10/09 06:36:41;;;;;;;3.22;0.63;;;16.60;79.40;;;;;;5052294;28;20142;-64
2022/10/09 06:39:09;;;;;;;2.97;0.57;;;16.30;81.50;;;;;;5053653;28;20051;-63
2022/10/09 06:41:36;;;;;;;4.82;1.15;;;16.10;82.70;;;;;;5057409;28;20072;-64
2022/10/09 06:44:05;;;;;;;6.30;1.60;;;15.90;84.20;;;;;;5055541;28;20585;-63
2022/10/09 06:46:39;;;;;;;6.45;1.10;;;15.80;84.50;;;;;;5074098;28;20140;-63
2022/10/09 06:49:07;;;;;;;3.20;0.70;;;15.80;85.40;;;;;;5042787;28;20041;-64
2022/10/09 06:51:36;;;;;;;3.95;1.10;;;15.80;85.60;;;;;;5051812;28;20028;-65
2022/10/09 06:54:09;;;;;;;5.30;1.08;;;15.70;86.10;;;;;;5048066;28;20456;-64
2022/10/09 06:56:37;;;;;;;4.75;1.13;;;15.70;87.50;;;;;;5049126;28;20108;-65
2022/10/09 06:59:06;;;;;;;3.10;0.80;;;15.60;86.80;;;;;;5029787;28;20036;-64
2022/10/09 07:01:34;;;;;;;3.30;0.77;;;15.50;87.00;;;;;;5043635;28;20520;-65
2022/10/09 07:04:07;;;;;;;4.93;0.90;;;15.40;86.50;;;;;;5044207;28;20029;-64
2022/10/09 07:06:38;;;;;;;4.57;0.90;;;15.40;87.90;;;;;;5048842;28;20058;-63
2022/10/09 07:09:08;;;;;;;2.67;0.70;;;15.40;88.70;;;;;;5039790;28;20079;-64
2022/10/09 07:11:38;;;;;;;5.13;0.73;;;15.30;87.70;;;;;;5048991;28;20493;-64
2022/10/09 07:14:07;;;;;;;4.53;0.70;;;15.30;88.00;;;;;;5045973;28;20021;-64
2022/10/09 07:16:43;;;;;;;4.15;1.02;;;15.20;87.90;;;;;;5045380;28;20089;-64
2022/10/09 07:19:12;;;;;;;4.53;1.00;;;15.10;87.40;;;;;;5034215;28;20025;-63
2022/10/09 07:21:41;;;;;;;6.15;1.40;;;15.00;88.30;;;;;;5049921;28;20132;-64
2022/10/09 07:24:10;;;;;;;2.25;0.80;;;14.90;88.60;;;;;;5049968;28;20017;-64
2022/10/09 07:26:41;;;;;;;4.45;1.35;;;14.90;89.60;;;;;;5053973;28;20033;-64
2022/10/09 07:29:11;;;;;;;7.45;1.05;;;14.90;89.20;;;;;;5047489;28;20024;-66
2022/10/09 07:31:38;;;;;;;5.90;0.95;;;14.90;90.10;;;;;;5047506;28;20032;-64
2022/10/09 07:34:06;;;;;;;9.43;1.70;;;14.80;90.30;;;;;;5049867;28;20036;-64
2022/10/09 07:36:34;;;;;;;5.40;1.13;;;14.80;90.70;;;;;;5053230;28;20060;-64
2022/10/09 07:39:01;;;;;;;4.25;1.10;;;14.80;90.50;;;;;;5041861;28;20025;-63
2022/10/09 07:41:29;;;;;;;4.40;1.73;;;14.80;90.70;;;;;;5034848;28;20037;-64
2022/10/09 07:43:57;;;;;;;4.88;0.90;;;14.80;91.00;;;;;;5048370;28;20033;-64
2022/10/09 07:46:26;;;;;;;4.35;1.15;;;14.80;90.50;;;;;;5044370;28;20021;-64
2022/10/09 07:48:54;;;;;;;3.25;0.95;;;14.80;90.50;;;;;;5041898;28;20032;-65
2022/10/09 07:51:24;;;;;;;4.95;1.10;;;14.70;90.40;;;;;;5046819;28;20033;-64
2022/10/09 07:53:52;;;;;;;4.32;1.20;;;14.70;90.70;;;;;;5049222;28;20029;-65
2022/10/09 07:56:22;;;;;;;4.43;0.95;;;14.70;90.40;;;;;;5048077;28;20061;-65
2022/10/09 07:58:51;;;;;;;4.07;1.30;;;14.70;90.60;;;;;;5042734;28;20559;-65
2022/10/09 08:01:20;;;;;;;4.53;1.20;;;14.70;90.90;;;;;;5039488;28;20413;-65
2022/10/09 08:03:48;;;;;;;10.52;1.45;;;14.70;90.60;;;;;;5045655;28;20385;-65
2022/10/09 08:06:16;;;;;;;3.63;0.88;;;14.70;90.60;;;;;;5046303;28;20064;-65
2022/10/09 08:08:44;;;;;;;5.20;0.70;;;14.70;90.80;;;;;;5066084;28;20040;-65
2022/10/09 08:11:14;;;;;;;7.15;1.30;;;14.60;90.90;;;;;;5049591;28;20032;-65
2022/10/09 08:13:42;;;;;;;6.28;2.50;;;14.60;90.90;;;;;;5055370;28;20458;-65
2022/10/09 08:16:10;;;;;;;7.57;1.10;;;14.50;90.60;;;;;;5046236;28;20120;-65
2022/10/09 08:18:37;;;;;;;4.78;0.80;;;14.50;90.80;;;;;;5045685;28;20063;-63
2022/10/09 08:21:22;;;;;;;5.15;1.00;;;14.40;91.60;;;;;;5044480;28;20040;-63
2022/10/09 08:23:51;;;;;;;;;;;14.30;92.70;;;;;;5049686;28;20052;-62
2022/10/09 08:26:21;;;;;;;4.50;1.27;;;14.10;93.50;;;;;;5048963;28;20320;-62
2022/10/09 08:29:02;;;;;;;8.93;1.73;;;14.00;93.80;;;;;;5045832;28;20066;-62
2022/10/09 08:31:31;;;;;;;5.50;1.00;;;13.80;93.60;;;;;;5054112;28;20032;-55
2022/10/09 08:34:00;;;;;;;8.88;1.17;;;13.70;94.00;;;;;;5053151;28;20043;-59
2022/10/09 08:36:29;;;;;;;4.15;0.93;;;13.70;93.50;;;;;;5045958;28;20079;-59
2022/10/09 08:38:56;;;;;;;5.93;1.05;;;13.70;94.10;;;;;;5054831;28;20086;-60
2022/10/09 08:41:32;;;;;;;4.40;1.13;;;13.60;94.50;;;;;;5059167;28;20045;-59
2022/10/09 08:44:05;;;;;;;6.90;1.92;;;13.50;95.00;;;;;;5053835;28;20308;-58
2022/10/09 08:47:01;;;;;;;3.90;1.10;;;13.50;94.20;;;;;;5043758;28;20025;-58
2022/10/09 08:49:36;;;;;;;6.00;1.10;;;13.50;94.50;;;;;;5047509;28;20056;-59
2022/10/09 08:52:15;;;;;;;4.28;1.35;;;13.50;95.60;;;;;;5045545;28;20037;-59
2022/10/09 08:54:43;;;;;;;6.10;1.08;;;13.50;95.60;;;;;;5045275;28;20480;-58
2022/10/09 08:57:13;;;;;;;2.70;0.95;;;13.60;94.30;;;;;;5067959;28;20020;-59
2022/10/09 08:59:41;;;;;;;4.28;1.20;;;13.60;94.30;;;;;;5042479;28;20025;-58
2022/10/09 09:02:14;;;;;;;4.22;1.63;;;13.50;95.10;;;;;;5045281;28;20132;-58
2022/10/09 09:05:14;;;;;;;5.07;0.90;;;13.50;95.70;;;;;;5041720;28;20021;-59
2022/10/09 09:07:54;;;;;;;4.93;1.00;;;13.40;95.40;;;;;;5043648;28;20025;-60
2022/10/09 09:10:36;;;;;;;8.38;1.38;;;13.40;95.10;;;;;;5041892;28;20025;-59
2022/10/09 09:13:07;;;;;;;3.25;1.13;;;13.40;95.50;;;;;;5045435;28;20636;-59
2022/10/09 09:15:55;;;;;;;3.95;0.88;;;13.40;95.50;;;;;;5051093;28;20124;-59
2022/10/09 09:18:34;;;;;;;7.20;1.48;;;13.30;96.10;;;;;;5042573;28;20021;-59
2022/10/09 09:21:31;;;;;;;8.93;1.30;;;13.30;96.10;;;;;;5049082;28;20062;-60
2022/10/09 09:24:02;;;;;;;3.45;1.10;;;13.20;96.50;;;;;;5049956;28;20025;-59
2022/10/09 09:26:29;;;;;;;12.45;3.03;;;13.10;96.90;;;;;;5053639;28;20138;-59
2022/10/09 09:29:01;;;;;;;4.90;1.00;;;13.00;96.50;;;;;;5061096;28;20503;-59
2022/10/09 09:31:35;;;;;;;3.60;0.85;;;12.90;96.60;;;;;;5047521;28;20021;-59
2022/10/09 09:34:24;;;;;;;4.90;1.20;;;12.80;97.00;;;;;;5057216;28;20033;-61
2022/10/09 09:36:57;;;;;;;5.60;1.58;;;12.50;97.70;;;;;;5061188;28;20123;-59
2022/10/09 09:39:27;;;;;;;10.23;2.20;;;12.40;98.30;;;;;;5054212;28;20028;-59
2022/10/09 09:42:21;;;;;;;5.50;1.23;;;12.20;99.30;;;;;;5057485;28;20044;-59
2022/10/09 09:45:07;;;;;;;10.15;1.35;;;12.10;99.90;;;;;;5047811;28;20429;-59
2022/10/09 09:48:00;;;;;;;6.53;2.17;;;12.00;99.90;;;;;;5050383;28;20116;-59
2022/10/09 09:50:41;;;;;;;7.53;1.55;;;11.80;99.90;;;;;;5062219;28;20051;-59
2022/10/09 09:53:33;;;;;;;6.85;1.10;;;11.70;99.90;;;;;;5040866;28;20024;-60
2022/10/09 09:56:00;;;;;;;7.78;1.20;;;11.60;99.90;;;;;;5062692;28;20105;-59
2022/10/09 09:58:43;;;;;;;2.88;0.88;;;11.60;99.90;;;;;;5042656;28;20055;-59
2022/10/09 10:01:29;;;;;;;9.00;1.23;;;11.70;99.90;;;;;;5032591;28;20029;-59
2022/10/09 10:03:59;;;;;;;4.57;1.25;;;11.80;99.90;;;;;;5046544;28;20059;-58
2022/10/09 10:06:43;;;;;;;5.57;1.35;;;11.70;99.90;;;;;;5050903;28;20032;-58
2022/10/09 10:09:17;;;;;;;7.68;1.27;;;11.80;99.90;;;;;;5044703;28;20039;-60
2022/10/09 10:12:05;;;;;;;9.25;1.50;;;11.70;99.90;;;;;;5056413;28;20043;-59
2022/10/09 10:14:33;;;;;;;4.88;1.17;;;11.70;99.90;;;;;;5054013;28;20036;-59
2022/10/09 10:17:01;;;;;;;7.60;1.10;;;11.70;99.90;;;;;;5049053;28;20017;-59
2022/10/09 10:19:37;;;;;;;6.70;1.13;;;11.60;99.90;;;;;;5062348;28;20082;-59
2022/10/09 10:22:20;;;;;;;6.40;1.80;;;11.50;99.90;;;;;;5041784;28;20036;-59
2022/10/09 10:24:48;;;;;;;5.75;1.33;;;11.60;99.90;;;;;;5062287;28;20036;-59
2022/10/09 10:27:28;;;;;;;6.93;1.30;;;11.50;99.90;;;;;;5051150;28;20023;-58
2022/10/09 10:30:00;;;;;;;6.25;1.15;;;11.50;99.90;;;;;;5053891;28;20032;-59
2022/10/09 10:32:47;;;;;;;6.57;1.40;;;11.40;99.90;;;;;;5045881;28;20028;-59
2022/10/09 10:35:34;;;;;;;11.73;1.48;;;11.30;99.90;;;;;;5043789;28;20588;-59
2022/10/09 10:38:32;;;;;;;6.07;1.20;;;11.20;99.90;;;;;;5050007;28;20037;-61
2022/10/09 10:41:28;;;;;;;8.88;1.90;;;11.00;99.90;;;;;;5062823;28;20082;-59
2022/10/09 10:44:03;;;;;;;7.05;1.27;;;10.90;99.90;;;;;;5060169;28;20040;-58
2022/10/09 10:46:54;;;;;;;4.32;1.33;;;10.80;99.90;;;;;;5051107;28;20033;-59
2022/10/09 10:49:22;;;;;;;8.05;1.40;;;10.80;99.90;;;;;;5047464;28;20501;-59
2022/10/09 10:51:59;;;;;;;7.07;1.67;;;10.70;99.90;;;;;;5054191;28;20028;-59
2022/10/09 10:54:50;;;;;;;5.28;1.42;;;10.60;99.90;;;;;;5048344;28;20111;-59
2022/10/09 10:57:37;;;;;;;6.95;1.15;;;10.50;99.90;;;;;;5047572;28;20043;-57
2022/10/09 11:00:08;;;;;;;5.75;1.40;;;10.40;99.90;;;;;;5048108;28;20506;-60
2022/10/09 11:03:02;;;;;;;10.60;1.63;;;10.30;99.90;;;;;;5061857;28;20064;-57
2022/10/09 11:05:39;;;;;;;11.52;1.50;;;10.30;99.90;;;;;;5040293;28;20505;-59
2022/10/09 11:08:39;;;;;;;8.43;1.33;;;10.40;99.90;;;;;;5053110;28;20037;-58
2022/10/09 11:11:10;;;;;;;7.78;1.70;;;10.40;99.90;;;;;;5034733;28;20016;-59
2022/10/09 11:14:02;;;;;;;13.85;2.25;;;10.60;99.90;;;;;;5061435;28;20017;-59
2022/10/09 11:16:48;;;;;;;19.10;2.15;;;10.80;99.90;;;;;;5050179;28;20828;-59
2022/10/09 11:19:45;;;;;;;8.35;1.65;;;10.90;99.90;;;;;;5030660;28;20057;-57
2022/10/09 11:22:44;;;;;;;7.40;1.30;;;11.00;99.90;;;;;;5037929;28;20502;-58
2022/10/09 11:25:29;;;;;;;5.30;1.30;;;11.10;99.90;;;;;;5030795;28;20037;-58
2022/10/09 11:28:04;;;;;;;4.97;1.02;;;11.20;99.90;;;;;;5050793;28;20026;-58
2022/10/09 11:30:56;;;;;;;5.35;1.63;;;11.30;99.90;;;;;;5044158;28;20033;-57
2022/10/09 11:33:45;;;;;;;8.23;1.55;;;11.40;99.90;;;;;;5064189;28;20143;-56
2022/10/09 11:36:33;;;;;;;5.18;1.20;;;11.50;99.90;;;;;;5054087;28;20051;-59
2022/10/09 11:39:11;;;;;;;5.05;1.20;;;11.60;99.90;;;;;;5057094;28;20028;-59
2022/10/09 11:41:40;;;;;;;8.02;1.67;;;11.70;99.90;;;;;;5047681;28;20030;-60
2022/10/09 11:44:16;;;;;;;4.75;1.50;;;11.70;99.90;;;;;;5054000;28;20097;-59
2022/10/09 11:47:03;;;;;;;4.93;1.35;;;11.70;99.90;;;;;;5051081;28;20037;-59
2022/10/09 11:49:43;;;;;;;7.07;1.20;;;11.80;99.90;;;;;;5061196;28;20080;-58
2022/10/09 11:52:20;;;;;;;8.63;3.05;;;11.80;99.90;;;;;;5052967;28;20032;-58
2022/10/09 11:54:47;;;;;;;7.93;1.38;;;11.80;99.90;;;;;;5064451;28;20025;-59
2022/10/09 11:57:25;;;;;;;11.18;2.20;;;11.80;99.90;;;;;;5054077;28;20025;-59
2022/10/09 12:00:07;;;;;;;7.90;1.50;;;11.80;99.90;;;;;;5058488;28;20029;-60
2022/10/09 12:02:36;;;;;;;9.88;1.17;;;11.90;99.90;;;;;;5064259;28;20780;-60
2022/10/09 12:05:29;;;;;;;8.32;1.50;;;11.90;99.90;;;;;;5034464;28;20021;-59
2022/10/09 12:08:16;;;;;;;2.97;0.93;;;11.90;99.90;;;;;;5057536;28;20025;-59
2022/10/09 12:10:53;;;;;;;5.50;0.90;;;12.00;99.90;;;;;;5051870;28;20036;-59
2022/10/09 12:13:39;;;;;;;3.42;1.20;;;12.00;99.90;;;;;;5053524;28;20147;-59
2022/10/09 12:16:09;;;;;;;7.25;1.30;;;12.00;99.90;;;;;;5046550;28;20037;-59
2022/10/09 12:18:40;;;;;;;7.43;1.02;;;12.10;99.90;;;;;;5065029;28;20132;-59
2022/10/09 12:21:27;;;;;;;6.10;2.15;;;12.10;99.90;;;;;;5049310;28;20123;-59
2022/10/09 12:23:55;;;;;;;4.95;1.00;;;12.20;99.90;;;;;;5053829;28;20037;-59
2022/10/09 12:26:24;;;;;;;5.50;1.70;;;12.10;99.90;;;;;;5060976;28;20040;-59
2022/10/09 12:28:59;;;;;;;5.60;1.40;;;12.10;99.90;;;;;;5050889;28;20044;-59
2022/10/09 12:31:32;;;;;;;5.82;1.48;;;12.10;99.90;;;;;;5055477;28;20389;-59
2022/10/09 12:34:11;;;;;;;4.38;1.52;;;12.10;99.90;;;;;;5064220;28;20097;-60
2022/10/09 12:36:38;;;;;;;5.13;1.10;;;12.10;99.90;;;;;;5050905;28;20029;-60
2022/10/09 12:39:22;;;;;;;11.85;2.20;;;12.10;99.90;;;;;;5052515;28;20096;-60
2022/10/09 12:41:56;;;;;;;11.13;2.20;;;12.20;99.90;;;;;;5049774;28;20037;-59
2022/10/09 12:44:30;;;;;;;6.03;1.30;;;12.20;99.90;;;;;;5050546;28;20406;-60
2022/10/09 12:47:28;;;;;;;8.27;1.67;;;12.10;99.90;;;;;;5052482;28;20036;-59
2022/10/09 12:50:13;;;;;;;5.57;1.63;;;12.10;99.90;;;;;;5037771;28;20588;-60
2022/10/09 12:52:51;;;;;;;4.40;1.17;;;12.00;99.90;;;;;;5047499;28;20114;-60
2022/10/09 12:55:31;;;;;;;4.70;1.42;;;11.90;99.90;;;;;;5045391;28;20025;-59
2022/10/09 12:58:13;;;;;;;9.00;1.88;;;11.80;99.90;;;;;;5040541;28;20579;-58
2022/10/09 13:00:42;;;;;;;6.03;1.25;;;11.70;99.90;;;;;;5043662;28;20170;-58
2022/10/09 13:03:35;;;;;;;6.18;1.75;;;11.70;99.90;;;;;;5048569;28;20103;-58
2022/10/09 13:06:12;;;;;;;4.30;1.30;;;11.60;99.90;;;;;;5044859;28;20029;-59
2022/10/09 13:08:40;;;;;;;6.32;1.30;;;11.50;99.90;;;;;;5048501;28;20104;-59
2022/10/09 13:11:12;;;;;;;7.68;1.80;;;11.40;99.90;;;;;;5046052;28;20493;-59
2022/10/09 13:13:40;;;;;;;6.10;2.13;;;11.30;99.90;;;;;;5040151;28;20056;-58
2022/10/09 13:16:09;;;;;;;4.03;1.30;;;11.10;99.90;;;;;;5051680;28;20070;-58
2022/10/09 13:18:37;;;;;;;6.28;1.38;;;11.10;99.90;;;;;;5073645;28;20074;-59
2022/10/09 13:21:23;;;;;;;7.43;1.27;;;11.00;99.90;;;;;;5039121;28;20807;-60
2022/10/09 13:23:51;;;;;;;3.42;1.23;;;10.90;99.90;;;;;;5040573;28;20077;-58